sensor_id;sensor_type;location;lat;lon;timestamp;pressure;altitude;pressure_sealevel;temperature;humidity
48644;BME280;34928;37.302;-121.984;2023-07-22T00:05:27;100489.0;;;32.34;24.60
48644;BME280;34928;37.302;-121.984;2023-07-22T00:15:33;100487.0;;;32.54;24.79
48644;BME280;34928;37.302;-121.984;2023-07-22T00:25:38;100481.0;;;32.56;24.94
48644;BME280;34928;37.302;-121.984;2023-07-22T00:35:43;100477.0;;;32.65;24.99
48644;BME280;34928;37.302;-121.984;2023-07-22T00:45:52;100471.0;;;33.03;25.16
48644;BME280;34928;37.302;-121.984;2023-07-22T00:55:58;100467.0;;;33.12;25.14
48644;BME280;34928;37.302;-121.984;2023-07-22T01:06:03;100461.0;;;33.34;25.14
48644;BME280;34928;37.302;-121.984;2023-07-22T01:16:08;100453.0;;;33.21;25.23
48644;BME280;34928;37.302;-121.984;2023-07-22T01:26:14;100448.0;;;33.39;25.26
48644;BME280;34928;37.302;-121.984;2023-07-22T01:36:18;100453.0;;;33.69;25.39
48644;BME280;34928;37.302;-121.984;2023-07-22T01:46:22;100452.0;;;33.34;23.57
48644;BME280;34928;37.302;-121.984;2023-07-22T01:56:28;100451.0;;;33.44;22.38
48644;BME280;34928;37.302;-121.984;2023-07-22T02:06:32;100455.0;;;33.19;21.66
48644;BME280;34928;37.302;-121.984;2023-07-22T02:16:38;100469.0;;;33.87;21.33
48644;BME280;34928;37.302;-121.984;2023-07-22T02:26:42;100469.0;;;33.54;21.69
48644;BME280;34928;37.302;-121.984;2023-07-22T02:36:48;100471.0;;;34.31;21.48
48644;BME280;34928;37.302;-121.984;2023-07-22T02:46:54;100477.0;;;33.02;22.28
48644;BME280;34928;37.302;-121.984;2023-07-22T02:56:57;100484.0;;;33.65;21.27
48644;BME280;34928;37.302;-121.984;2023-07-22T03:07:03;100491.0;;;33.68;21.44
48644;BME280;34928;37.302;-121.984;2023-07-22T03:17:08;100492.0;;;33.50;21.57
48644;BME280;34928;37.302;-121.984;2023-07-22T03:27:13;100499.0;;;33.70;21.80
48644;BME280;34928;37.302;-121.984;2023-07-22T03:37:17;100504.0;;;33.79;22.05
48644;BME280;34928;37.302;-121.984;2023-07-22T03:47:23;100507.0;;;33.38;22.74
48644;BME280;34928;37.302;-121.984;2023-07-22T03:57:28;100502.0;;;32.85;23.25
48644;BME280;34928;37.302;-121.984;2023-07-22T04:07:32;100494.0;;;32.98;23.88
48644;BME280;34928;37.302;-121.984;2023-07-22T04:17:38;100505.0;;;32.27;24.64
48644;BME280;34928;37.302;-121.984;2023-07-22T04:27:42;100514.0;;;32.01;24.94
48644;BME280;34928;37.302;-121.984;2023-07-22T04:37:47;100522.0;;;31.74;24.81
48644;BME280;34928;37.302;-121.984;2023-07-22T04:47:52;100530.0;;;31.56;24.72
48644;BME280;34928;37.302;-121.984;2023-07-22T04:57:57;100536.0;;;31.62;25.23
48644;BME280;34928;37.302;-121.984;2023-07-22T05:08:02;100540.0;;;31.19;26.26
48644;BME280;34928;37.302;-121.984;2023-07-22T05:18:08;100542.0;;;30.99;26.96
48644;BME280;34928;37.302;-121.984;2023-07-22T05:28:13;100548.0;;;30.89;27.87
48644;BME280;34928;37.302;-121.984;2023-07-22T05:38:18;100554.0;;;30.60;28.18
48644;BME280;34928;37.302;-121.984;2023-07-22T05:48:22;100569.0;;;30.20;28.36
48644;BME280;34928;37.302;-121.984;2023-07-22T05:58:27;100582.0;;;30.32;27.79
48644;BME280;34928;37.302;-121.984;2023-07-22T06:08:32;100585.0;;;30.52;28.02
48644;BME280;34928;37.302;-121.984;2023-07-22T06:18:38;100584.0;;;30.24;28.41
48644;BME280;34928;37.302;-121.984;2023-07-22T06:28:43;100578.0;;;30.75;27.76
48644;BME280;34928;37.302;-121.984;2023-07-22T06:38:48;100577.0;;;30.56;28.05
48644;BME280;34928;37.302;-121.984;2023-07-22T06:48:53;100562.0;;;30.65;27.18
48644;BME280;34928;37.302;-121.984;2023-07-22T06:58:58;100557.0;;;30.61;26.63
48644;BME280;34928;37.302;-121.984;2023-07-22T07:09:02;100558.0;;;30.01;27.11
48644;BME280;34928;37.302;-121.984;2023-07-22T07:19:08;100552.0;;;29.91;27.42
48644;BME280;34928;37.302;-121.984;2023-07-22T07:29:13;100554.0;;;29.90;28.03
48644;BME280;34928;37.302;-121.984;2023-07-22T07:39:17;100550.0;;;29.71;28.42
48644;BME280;34928;37.302;-121.984;2023-07-22T07:49:22;100542.0;;;29.60;28.67
48644;BME280;34928;37.302;-121.984;2023-07-22T07:59:27;100532.0;;;29.36;29.19
48644;BME280;34928;37.302;-121.984;2023-07-22T08:09:32;100531.0;;;30.57;27.97
48644;BME280;34928;37.302;-121.984;2023-07-22T08:19:37;100521.0;;;30.84;27.32
48644;BME280;34928;37.302;-121.984;2023-07-22T08:29:42;100504.0;;;31.10;27.01
48644;BME280;34928;37.302;-121.984;2023-07-22T08:39:47;100501.0;;;30.96;27.01
48644;BME280;34928;37.302;-121.984;2023-07-22T08:49:55;100495.0;;;31.17;26.96
48644;BME280;34928;37.302;-121.984;2023-07-22T09:00:03;100496.0;;;31.26;26.81
48644;BME280;34928;37.302;-121.984;2023-07-22T09:10:09;100488.0;;;30.85;26.69
48644;BME280;34928;37.302;-121.984;2023-07-22T09:20:13;100487.0;;;31.09;26.75
48644;BME280;34928;37.302;-121.984;2023-07-22T09:30:24;100485.0;;;30.90;26.53
48644;BME280;34928;37.302;-121.984;2023-07-22T09:40:28;100489.0;;;31.37;26.60
48644;BME280;34928;37.302;-121.984;2023-07-22T09:50:32;100482.0;;;31.08;26.62
48644;BME280;34928;37.302;-121.984;2023-07-22T10:00:37;100470.0;;;30.70;26.68
48644;BME280;34928;37.302;-121.984;2023-07-22T10:10:43;100469.0;;;30.67;26.65
48644;BME280;34928;37.302;-121.984;2023-07-22T10:20:48;100461.0;;;30.84;26.64
48644;BME280;34928;37.302;-121.984;2023-07-22T10:30:53;100454.0;;;30.46;26.74
48644;BME280;34928;37.302;-121.984;2023-07-22T10:40:57;100448.0;;;30.32;26.81
48644;BME280;34928;37.302;-121.984;2023-07-22T10:51:07;100448.0;;;30.29;26.73
48644;BME280;34928;37.302;-121.984;2023-07-22T11:11:36;100444.0;;;30.69;26.69
48644;BME280;34928;37.302;-121.984;2023-07-22T11:21:43;100441.0;;;30.57;26.72
48644;BME280;34928;37.302;-121.984;2023-07-22T11:31:49;100437.0;;;30.55;26.62
48644;BME280;34928;37.302;-121.984;2023-07-22T11:41:53;100433.0;;;30.25;26.62
48644;BME280;34928;37.302;-121.984;2023-07-22T11:51:59;100435.0;;;30.15;26.60
48644;BME280;34928;37.302;-121.984;2023-07-22T12:02:04;100439.0;;;30.26;26.58
48644;BME280;34928;37.302;-121.984;2023-07-22T12:12:08;100445.0;;;29.97;26.55
48644;BME280;34928;37.302;-121.984;2023-07-22T12:22:12;100447.0;;;30.03;26.66
48644;BME280;34928;37.302;-121.984;2023-07-22T12:32:17;100453.0;;;29.94;26.69
48644;BME280;34928;37.302;-121.984;2023-07-22T12:42:23;100462.0;;;29.92;26.65
48644;BME280;34928;37.302;-121.984;2023-07-22T12:52:28;100476.0;;;29.89;26.62
48644;BME280;34928;37.302;-121.984;2023-07-22T13:02:32;100475.0;;;29.82;26.62
48644;BME280;34928;37.302;-121.984;2023-07-22T13:12:37;100490.0;;;29.66;26.72
48644;BME280;34928;37.302;-121.984;2023-07-22T13:22:43;100485.0;;;30.00;26.58
48644;BME280;34928;37.302;-121.984;2023-07-22T13:32:47;100484.0;;;29.80;26.76
48644;BME280;34928;37.302;-121.984;2023-07-22T13:42:52;100481.0;;;29.68;26.85
48644;BME280;34928;37.302;-121.984;2023-07-22T13:52:58;100483.0;;;29.46;26.84
48644;BME280;34928;37.302;-121.984;2023-07-22T14:03:03;100483.0;;;29.63;26.93
48644;BME280;34928;37.302;-121.984;2023-07-22T14:13:08;100494.0;;;29.66;26.74
48644;BME280;34928;37.302;-121.984;2023-07-22T14:23:13;100495.0;;;29.49;26.85
48644;BME280;34928;37.302;-121.984;2023-07-22T14:33:17;100500.0;;;29.70;26.83
48644;BME280;34928;37.302;-121.984;2023-07-22T14:43:23;100516.0;;;29.67;26.94
48644;BME280;34928;37.302;-121.984;2023-07-22T14:53:27;100503.0;;;29.88;26.80
48644;BME280;34928;37.302;-121.984;2023-07-22T15:03:33;100516.0;;;29.28;28.35
48644;BME280;34928;37.302;-121.984;2023-07-22T15:13:37;100518.0;;;27.61;32.54
48644;BME280;34928;37.302;-121.984;2023-07-22T15:23:43;100514.0;;;27.45;32.93
48644;BME280;34928;37.302;-121.984;2023-07-22T15:33:47;100506.0;;;27.78;32.99
48644;BME280;34928;37.302;-121.984;2023-07-22T15:43:53;100509.0;;;27.81;32.71
48644;BME280;34928;37.302;-121.984;2023-07-22T15:53:57;100512.0;;;27.23;34.28
48644;BME280;34928;37.302;-121.984;2023-07-22T16:04:03;100507.0;;;27.71;33.63
48644;BME280;34928;37.302;-121.984;2023-07-22T16:14:07;100500.0;;;28.60;32.11
48644;BME280;34928;37.302;-121.984;2023-07-22T16:24:12;100496.0;;;29.29;30.59
48644;BME280;34928;37.302;-121.984;2023-07-22T16:34:18;100496.0;;;29.05;30.47
48644;BME280;34928;37.302;-121.984;2023-07-22T16:44:23;100492.0;;;29.57;31.30
48644;BME280;34928;37.302;-121.984;2023-07-22T16:54:27;100479.0;;;29.89;30.52
48644;BME280;34928;37.302;-121.984;2023-07-22T17:04:33;100463.0;;;29.90;30.08
48644;BME280;34928;37.302;-121.984;2023-07-22T17:14:37;100473.0;;;30.27;30.25
48644;BME280;34928;37.302;-121.984;2023-07-22T17:24:43;100473.0;;;30.15;30.24
48644;BME280;34928;37.302;-121.984;2023-07-22T17:34:47;100477.0;;;29.76;30.37
48644;BME280;34928;37.302;-121.984;2023-07-22T17:44:53;100470.0;;;29.98;30.00
48644;BME280;34928;37.302;-121.984;2023-07-22T17:54:58;100466.0;;;30.24;29.70
48644;BME280;34928;37.302;-121.984;2023-07-22T18:05:03;100463.0;;;30.98;29.38
48644;BME280;34928;37.302;-121.984;2023-07-22T18:15:08;100461.0;;;30.79;28.46
48644;BME280;34928;37.302;-121.984;2023-07-22T18:25:13;100467.0;;;31.42;27.33
48644;BME280;34928;37.302;-121.984;2023-07-22T18:35:18;100449.0;;;31.14;26.66
48644;BME280;34928;37.302;-121.984;2023-07-22T18:45:22;100435.0;;;31.20;26.32
48644;BME280;34928;37.302;-121.984;2023-07-22T18:55:28;100427.0;;;31.33;26.46
48644;BME280;34928;37.302;-121.984;2023-07-22T19:05:32;100433.0;;;31.53;25.51
48644;BME280;34928;37.302;-121.984;2023-07-22T19:15:46;100414.0;;;30.68;24.48
48644;BME280;34928;37.302;-121.984;2023-07-22T19:25:52;100410.0;;;30.85;24.41
48644;BME280;34928;37.302;-121.984;2023-07-22T19:36:02;100397.0;;;30.88;24.32
48644;BME280;34928;37.302;-121.984;2023-07-22T19:46:09;100384.0;;;30.35;24.38
48644;BME280;34928;37.302;-121.984;2023-07-22T19:56:13;100376.0;;;30.47;24.10
48644;BME280;34928;37.302;-121.984;2023-07-22T20:06:18;100366.0;;;30.61;24.16
48644;BME280;34928;37.302;-121.984;2023-07-22T20:16:22;100356.0;;;30.44;23.99
48644;BME280;34928;37.302;-121.984;2023-07-22T20:26:28;100356.0;;;30.35;24.05
48644;BME280;34928;37.302;-121.984;2023-07-22T20:36:32;100356.0;;;30.44;23.97
48644;BME280;34928;37.302;-121.984;2023-07-22T20:46:38;100358.0;;;30.44;23.97
48644;BME280;34928;37.302;-121.984;2023-07-22T20:56:42;100348.0;;;30.62;23.83
48644;BME280;34928;37.302;-121.984;2023-07-22T21:06:47;100347.0;;;30.10;23.86
48644;BME280;34928;37.302;-121.984;2023-07-22T21:16:53;100341.0;;;30.71;23.92
48644;BME280;34928;37.302;-121.984;2023-07-22T21:26:58;100327.0;;;30.28;23.89
48644;BME280;34928;37.302;-121.984;2023-07-22T21:37:03;100320.0;;;30.40;23.85
48644;BME280;34928;37.302;-121.984;2023-07-22T21:47:08;100317.0;;;30.45;23.91
48644;BME280;34928;37.302;-121.984;2023-07-22T21:57:12;100308.0;;;31.09;23.95
48644;BME280;34928;37.302;-121.984;2023-07-22T22:07:18;100306.0;;;31.08;24.21
48644;BME280;34928;37.302;-121.984;2023-07-22T22:17:23;100301.0;;;30.79;24.24
48644;BME280;34928;37.302;-121.984;2023-07-22T22:27:28;100292.0;;;31.03;24.18
48644;BME280;34928;37.302;-121.984;2023-07-22T22:37:33;100288.0;;;31.12;24.39
48644;BME280;34928;37.302;-121.984;2023-07-22T22:47:37;100274.0;;;31.36;24.14
48644;BME280;34928;37.302;-121.984;2023-07-22T22:57:42;100270.0;;;31.19;24.01
48644;BME280;34928;37.302;-121.984;2023-07-22T23:07:48;100253.0;;;31.29;23.65
48644;BME280;34928;37.302;-121.984;2023-07-22T23:17:52;100250.0;;;31.39;23.29
48644;BME280;34928;37.302;-121.984;2023-07-22T23:27:57;100238.0;;;31.37;23.38
48644;BME280;34928;37.302;-121.984;2023-07-22T23:38:03;100233.0;;;31.48;23.17
48644;BME280;34928;37.302;-121.984;2023-07-22T23:48:09;100226.0;;;31.67;22.92
48644;BME280;34928;37.302;-121.984;2023-07-22T23:58:13;100224.0;;;31.99;22.66
